Time;durP1;ratioP1;P1;durP2;ratioP2;P2;SDS_P1;SDS_P2;PMS_P1;PMS_P2;Temp;Humidity;BMP_temperature;BMP_pressure;BME280_temperature;BME280_humidity;BME280_pressure;Samples;Min_cycle;Max_cycle;Signal;HPM_P1;HPM_P2
2023/03/24 05:12:53;;;;;;;32.50;20.02;;;;;;;6.83;100.00;99942.91;5563168;32;268029;-85
2023/03/24 05:16:02;;;;;;;37.15;20.33;;;;;;;6.86;100.00;99950.72;5548405;32;33407;-86
2023/03/24 05:19:06;;;;;;;32.15;18.67;;;;;;;6.96;100.00;99952.06;5546731;32;34253;-86
2023/03/24 05:22:09;;;;;;;33.72;20.17;;;;;;;7.09;100.00;99960.28;5547552;32;34061;-86
2023/03/24 05:25:12;;;;;;;29.77;18.95;;;;;;;7.28;100.00;99957.75;5548635;32;33767;-86
2023/03/24 05:28:16;;;;;;;36.55;19.40;;;;;;;7.41;100.00;99959.84;5547541;32;34280;-87
2023/03/24 05:31:19;;;;;;;29.00;18.40;;;;;;;7.48;100.00;99956.03;5546136;32;34090;-90
2023/03/24 05:34:23;;;;;;;34.75;19.60;;;;;;;7.63;100.00;99953.63;5546266;32;34413;-90
2023/03/24 05:37:26;;;;;;;27.58;18.83;;;;;;;7.79;100.00;99952.03;5546087;32;34071;-91
2023/03/24 05:40:30;;;;;;;32.20;18.58;;;;;;;7.98;100.00;99956.47;5549284;32;34714;-87
2023/03/24 05:43:33;;;;;;;33.47;17.75;;;;;;;8.13;100.00;99970.75;5556336;32;34312;-87
2023/03/24 05:46:41;;;;;;;28.62;18.02;;;;;;;8.34;100.00;99975.97;5553645;32;35078;-86
2023/03/24 05:49:45;;;;;;;33.75;18.85;;;;;;;8.61;100.00;99979.13;5556920;32;33738;-86
2023/03/24 05:52:48;;;;;;;26.42;18.00;;;;;;;8.97;100.00;99982.72;5552900;32;34612;-86
2023/03/24 05:55:52;;;;;;;29.00;18.73;;;;;;;9.37;100.00;99976.34;5546393;32;33542;-86
2023/03/24 05:58:58;;;;;;;32.58;19.15;;;;;;;9.89;100.00;99972.75;5548641;32;34196;-87
2023/03/24 06:02:02;;;;;;;29.90;19.08;;;;;;;10.59;100.00;99968.13;5545869;32;33369;-86
2023/03/24 06:05:07;;;;;;;34.70;18.52;;;;;;;11.28;100.00;99970.41;5546021;32;33729;-86
2023/03/24 06:08:10;;;;;;;30.20;17.87;;;;;;;12.10;100.00;99965.47;5541508;32;34876;-86
2023/03/24 06:11:13;;;;;;;31.65;18.15;;;;;;;13.04;97.52;99962.19;5548219;32;34111;-86
2023/03/24 06:14:17;;;;;;;28.08;18.75;;;;;;;13.81;88.37;99969.44;5557980;32;33859;-87
2023/03/24 06:17:23;;;;;;;29.48;19.37;;;;;;;13.90;86.23;99973.28;5539442;32;34299;-86
2023/03/24 06:20:26;;;;;;;25.67;19.33;;;;;;;14.00;83.80;99974.34;5532682;32;34478;-87
2023/03/24 06:23:32;;;;;;;28.58;18.40;;;;;;;14.02;84.73;99975.06;5535453;32;34129;-87
2023/03/24 06:26:35;;;;;;;27.40;19.00;;;;;;;14.22;82.92;99975.47;5536158;32;34841;-87
2023/03/24 06:29:42;;;;;;;30.42;18.90;;;;;;;13.55;84.04;99973.91;5542480;32;34159;-87
2023/03/24 06:32:46;;;;;;;25.92;18.02;;;;;;;13.96;82.67;99975.50;5560902;32;33540;-87
2023/03/24 06:35:50;;;;;;;25.70;18.20;;;;;;;14.20;78.72;99973.88;5565125;32;33546;-86
2023/03/24 06:38:53;;;;;;;26.30;18.20;;;;;;;15.65;73.83;99976.59;5552947;31;33802;-87
2023/03/24 06:41:56;;;;;;;29.35;18.37;;;;;;;16.51;69.35;99978.81;5546435;32;35173;-87
2023/03/24 06:44:58;;;;;;;24.77;17.83;;;;;;;17.85;62.78;99979.31;5545732;32;34777;-86
2023/03/24 06:48:01;;;;;;;25.92;18.35;;;;;;;18.49;59.76;99976.47;5548025;32;34315;-87
2023/03/24 06:51:05;;;;;;;21.65;17.40;;;;;;;18.74;53.85;99973.41;5561815;32;34848;-86
2023/03/24 06:54:13;;;;;;;25.20;18.27;;;;;;;19.54;50.88;99970.56;5554961;32;35290;-87
2023/03/24 06:57:16;;;;;;;22.92;18.10;;;;;;;20.26;47.41;99970.06;5549852;32;33769;-86
2023/03/24 07:00:24;;;;;;;20.67;18.08;;;;;;;20.54;41.98;99966.50;5546154;32;35126;-88
2023/03/24 07:03:28;;;;;;;22.17;18.77;;;;;;;19.81;43.02;99968.94;5549395;32;34440;-87
2023/03/24 07:06:33;;;;;;;24.40;17.90;;;;;;;21.00;40.51;99961.09;5546816;32;35130;-88
2023/03/24 07:09:49;;;;;;;26.85;18.62;;;;;;;21.67;40.20;99957.03;5559907;32;35210;-88
2023/03/24 07:12:52;;;;;;;26.62;18.95;;;;;;;21.71;38.91;99958.44;5566350;32;33765;-88
2023/03/24 07:15:55;;;;;;;27.33;18.02;;;;;;;21.49;37.83;99954.38;5566318;31;35003;-90
2023/03/24 07:19:02;;;;;;;24.95;19.25;;;;;;;21.41;37.48;99947.06;5566421;31;33876;-91
2023/03/24 07:22:08;;;;;;;25.12;19.00;;;;;;;20.01;40.81;99948.22;5565954;31;35253;-88
2023/03/24 07:25:13;;;;;;;24.25;18.95;;;;;;;20.56;39.42;99953.72;5552450;32;35065;-89
2023/03/24 07:28:16;;;;;;;28.23;19.80;;;;;;;20.09;40.88;99947.47;5551514;32;34024;-89
2023/03/24 07:31:21;;;;;;;23.67;19.15;;;;;;;21.63;37.64;99945.69;5530864;32;34177;-87
2023/03/24 07:34:27;;;;;;;21.60;17.98;;;;;;;22.79;35.35;99936.41;5549686;32;33661;-87
2023/03/24 07:37:32;;;;;;;25.70;18.70;;;;;;;23.99;33.27;99934.06;5531808;32;34081;-87
2023/03/24 07:40:35;;;;;;;18.98;16.50;;;;;;;24.54;32.61;99929.56;5537758;32;34214;-87
2023/03/24 07:43:38;;;;;;;24.70;17.52;;;;;;;25.11;30.85;99924.78;5526799;32;34391;-87
2023/03/24 07:46:42;;;;;;;21.50;17.30;;;;;;;24.98;31.43;99924.53;5522333;32;33628;-87
2023/03/24 07:49:45;;;;;;;19.00;16.92;;;;;;;24.57;31.23;99928.38;5534768;32;34600;-87
2023/03/24 07:52:49;;;;;;;20.10;16.98;;;;;;;25.40;30.38;99930.44;5543885;32;33913;-87
2023/03/24 07:55:52;;;;;;;20.58;15.93;;;;;;;26.58;28.29;99928.88;5534011;32;34013;-86
2023/03/24 07:58:56;;;;;;;19.12;15.80;;;;;;;28.32;26.13;99930.38;5531187;32;33795;-87
2023/03/24 08:01:59;;;;;;;19.35;15.18;;;;;;;25.66;28.76;99930.03;5531980;32;33853;-86
2023/03/24 08:05:04;;;;;;;18.95;15.20;;;;;;;26.88;27.15;99920.59;5544521;32;32484;-87
2023/03/24 08:08:09;;;;;;;16.08;14.32;;;;;;;28.30;25.79;99924.31;5554286;32;34079;-87
2023/03/24 08:11:12;;;;;;;18.23;15.77;;;;;;;29.90;24.46;99912.78;5539282;32;33545;-87
2023/03/24 08:14:15;;;;;;;16.23;14.55;;;;;;;31.16;22.03;99912.28;5545116;32;33988;-87
2023/03/24 08:17:21;;;;;;;20.98;13.60;;;;;;;28.94;24.41;99903.03;5534178;32;33580;-91
2023/03/24 08:24:21;;;;;;;15.07;13.45;;;;;;;30.68;22.62;99891.81;2701242;26;20444;-88
2023/03/24 08:27:24;;;;;;;15.75;13.05;;;;;;;26.70;26.15;99886.53;5586646;31;32401;-86
2023/03/24 08:30:27;;;;;;;17.50;12.93;;;;;;;26.08;27.49;99876.03;5588202;31;34110;-86
2023/03/24 08:33:31;;;;;;;15.95;12.20;;;;;;;25.09;28.63;99882.56;5560773;32;33868;-86
2023/03/24 08:36:33;;;;;;;18.55;12.68;;;;;;;25.01;30.11;99872.63;5576644;31;33754;-85
2023/03/24 08:39:36;;;;;;;16.67;11.60;;;;;;;24.33;29.97;99867.84;5573834;31;34393;-90
2023/03/24 08:42:40;;;;;;;16.70;13.70;;;;;;;24.19;30.54;99874.91;5575768;32;35917;-90
2023/03/24 08:45:43;;;;;;;17.92;13.05;;;;;;;22.69;32.80;99869.81;5568554;32;33718;-87
2023/03/24 08:48:46;;;;;;;13.55;11.07;;;;;;;22.40;34.04;99864.84;5574450;31;35071;-84
2023/03/24 08:51:49;;;;;;;14.15;11.25;;;;;;;22.45;33.54;99859.78;5576512;31;34060;-84
2023/03/24 08:54:51;;;;;;;17.23;11.82;;;;;;;22.14;35.28;99857.72;5569044;32;34303;-84
2023/03/24 08:57:54;;;;;;;14.55;11.57;;;;;;;20.85;36.59;99856.50;5561501;32;32211;-86
2023/03/24 09:00:57;;;;;;;17.02;12.15;;;;;;;20.64;37.38;99859.50;5554899;32;34053;-84
2023/03/24 09:04:00;;;;;;;15.90;11.25;;;;;;;21.06;36.62;99860.69;5550603;32;35657;-85
2023/03/24 09:07:03;;;;;;;22.55;10.82;;;;;;;21.16;36.97;99859.78;5558160;32;33984;-85
2023/03/24 09:10:09;;;;;;;14.13;11.40;;;;;;;22.03;37.09;99857.00;5550727;32;33456;-83
2023/03/24 09:13:12;;;;;;;19.17;11.65;;;;;;;21.83;35.48;99856.44;5563582;32;34258;-84
2023/03/24 09:16:15;;;;;;;14.75;10.20;;;;;;;22.68;34.53;99849.19;5558663;32;33892;-84
2023/03/24 09:19:18;;;;;;;13.40;11.77;;;;;;;23.15;34.32;99844.91;5562599;32;34048;-85
2023/03/24 09:22:23;;;;;;;17.37;10.73;;;;;;;23.44;33.05;99855.38;5554779;32;33813;-85
2023/03/24 09:25:26;;;;;;;13.62;10.63;;;;;;;22.73;34.55;99840.59;5555354;32;34015;-85
2023/03/24 09:28:29;;;;;;;13.30;10.57;;;;;;;22.51;33.99;99851.00;5566647;32;34051;-85
2023/03/24 09:31:31;;;;;;;16.83;10.48;;;;;;;22.01;34.77;99845.53;5557835;32;34126;-85
2023/03/24 09:34:37;;;;;;;14.80;10.05;;;;;;;21.05;36.69;99841.97;5559359;32;33707;-86
2023/03/24 09:37:41;;;;;;;14.63;9.90;;;;;;;21.08;36.76;99849.78;5564173;32;34561;-85
2023/03/24 09:40:48;;;;;;;9.95;8.55;;;;;;;21.25;36.57;99835.38;5550452;32;33916;-86
2023/03/24 09:43:56;;;;;;;21.20;9.63;;;;;;;20.99;36.89;99832.69;5558876;32;35039;-85
2023/03/24 09:47:12;;;;;;;20.55;10.30;;;;;;;20.96;37.29;99825.75;5557317;32;34559;-86
2023/03/24 09:50:21;;;;;;;14.90;9.45;;;;;;;21.59;37.23;99814.81;5566495;31;34091;-85
2023/03/24 09:53:50;;;;;;;14.73;9.98;;;;;;;22.52;35.47;99809.50;5566726;31;33708;-84
2023/03/24 09:56:54;;;;;;;17.23;10.30;;;;;;;22.25;36.03;99808.78;5556332;32;34164;-85
2023/03/24 09:59:57;;;;;;;14.43;9.55;;;;;;;21.67;36.72;99803.19;5566480;32;33988;-84
2023/03/24 10:03:13;;;;;;;17.75;10.77;;;;;;;22.49;36.71;99796.31;5573641;32;33872;-84
2023/03/24 10:06:24;;;;;;;13.77;10.55;;;;;;;22.64;35.65;99792.94;5575205;32;34079;-87
2023/03/24 10:09:30;;;;;;;17.30;11.27;;;;;;;22.99;34.80;99799.81;5575141;32;34332;-88
2023/03/24 10:12:38;;;;;;;20.45;10.55;;;;;;;22.61;35.66;99791.41;5555299;32;34372;-84
2023/03/24 10:15:50;;;;;;;18.12;11.15;;;;;;;23.25;34.59;99789.78;5561841;31;34058;-84
2023/03/24 10:19:09;;;;;;;17.00;10.52;;;;;;;23.32;34.11;99790.81;5581594;32;35040;-83
2023/03/24 10:22:28;;;;;;;15.02;10.07;;;;;;;22.85;34.72;99787.87;5577481;32;33744;-84
2023/03/24 10:25:41;;;;;;;14.15;11.02;;;;;;;22.27;36.00;99779.72;5572908;32;34897;-84
2023/03/24 10:28:48;;;;;;;16.50;10.65;;;;;;;21.57;37.30;99770.94;5569264;32;33863;-85
2023/03/24 10:32:02;;;;;;;16.52;10.82;;;;;;;21.99;36.79;99771.09;5568964;32;33691;-85
2023/03/24 10:35:08;;;;;;;16.10;10.77;;;;;;;22.74;36.05;99777.41;5567455;32;34144;-85
2023/03/24 10:38:17;;;;;;;18.37;10.43;;;;;;;23.36;34.50;99764.25;5555928;32;33810;-84
2023/03/24 10:41:23;;;;;;;14.45;10.00;;;;;;;24.52;32.65;99752.69;5554596;32;34908;-84
2023/03/24 10:44:26;;;;;;;17.73;9.60;;;;;;;24.20;33.18;99760.09;5567224;32;33780;-85
2023/03/24 10:47:29;;;;;;;13.10;9.65;;;;;;;23.84;33.45;99761.50;5560639;32;33888;-84
2023/03/24 10:50:40;;;;;;;13.27;8.95;;;;;;;23.41;33.84;99757.31;5560972;32;34007;-84
2023/03/24 10:53:47;;;;;;;11.48;7.53;;;;;;;23.73;33.52;99745.62;5554126;32;33635;-84
2023/03/24 10:57:16;;;;;;;15.20;8.35;;;;;;;22.85;34.15;99750.00;5567518;31;34186;-84
2023/03/24 11:00:28;;;;;;;12.07;8.07;;;;;;;23.44;33.61;99749.84;5565282;32;33800;-84
2023/03/24 11:03:35;;;;;;;9.48;6.75;;;;;;;24.11;32.48;99755.72;5574857;32;33715;-83
2023/03/24 11:06:51;;;;;;;14.95;6.95;;;;;;;26.07;28.97;99757.50;5565103;32;34340;-84
2023/03/24 11:10:07;;;;;;;9.23;6.37;;;;;;;26.96;27.49;99743.63;5565086;32;34743;-86
2023/03/24 11:13:27;;;;;;;14.48;7.00;;;;;;;27.49;27.45;99742.22;5560023;32;34268;-86
2023/03/24 11:16:35;;;;;;;9.73;6.43;;;;;;;25.76;29.43;99734.19;5579436;32;33974;-85
2023/03/24 11:19:55;;;;;;;11.65;6.53;;;;;;;24.44;31.43;99723.78;5578902;31;33972;-86
2023/03/24 11:23:06;;;;;;;10.23;5.93;;;;;;;23.45;33.22;99710.94;5584426;31;35079;-86
2023/03/24 11:26:23;;;;;;;10.57;6.72;;;;;;;23.46;33.25;99712.59;5579993;31;33922;-86
2023/03/24 11:29:29;;;;;;;12.30;6.30;;;;;;;23.09;34.31;99715.78;5573134;32;34541;-86
2023/03/24 11:32:32;;;;;;;14.77;5.68;;;;;;;23.46;33.77;99699.94;5569957;32;34051;-84
2023/03/24 11:35:39;;;;;;;15.40;5.53;;;;;;;24.90;31.61;99698.44;5571076;32;34867;-84
2023/03/24 11:38:42;;;;;;;14.27;6.12;;;;;;;25.24;30.75;99687.19;5572963;32;33720;-85
2023/03/24 11:41:51;;;;;;;12.82;6.50;;;;;;;24.27;31.82;99684.31;5572224;32;34173;-85
2023/03/24 11:44:55;;;;;;;9.23;5.68;;;;;;;23.87;32.59;99679.88;5573199;32;33856;-88
2023/03/24 11:48:00;;;;;;;11.52;5.75;;;;;;;23.59;33.33;99672.28;5575259;32;34619;-89
2023/03/24 11:51:05;;;;;;;11.73;6.20;;;;;;;22.97;33.27;99665.78;5573607;32;33784;-90
2023/03/24 11:54:13;;;;;;;10.25;6.00;;;;;;;23.01;33.48;99657.19;5558224;32;34097;-86
2023/03/24 11:57:44;;;;;;;8.77;5.25;;;;;;;23.38;33.12;99657.53;5556724;32;34078;-86
2023/03/24 12:01:14;;;;;;;8.05;5.25;;;;;;;22.95;33.65;99662.44;5569449;31;34043;-86
2023/03/24 12:04:23;;;;;;;9.30;4.72;;;;;;;22.53;34.17;99646.34;5561797;31;34303;-88
2023/03/24 12:07:38;;;;;;;14.35;5.35;;;;;;;22.47;34.37;99641.59;5567508;31;34205;-88
2023/03/24 12:10:56;;;;;;;10.55;4.78;;;;;;;22.24;34.42;99633.38;5582563;31;34373;-88
2023/03/24 12:14:03;;;;;;;6.62;5.00;;;;;;;22.23;34.89;99624.44;5576886;31;33910;-89
2023/03/24 12:21:05;;;;;;;9.73;3.70;;;;;;;22.33;34.26;99616.97;5651955;26;20156;-90
2023/03/24 12:24:46;;;;;;;6.40;3.90;;;;;;;22.55;33.42;99602.94;5612415;31;34647;-89
2023/03/24 12:28:03;;;;;;;7.45;3.78;;;;;;;22.75;33.11;99596.13;5583349;31;35345;-87
2023/03/24 12:31:11;;;;;;;5.97;3.67;;;;;;;22.86;33.16;99602.13;5591199;31;34696;-87
2023/03/24 12:34:51;;;;;;;12.80;3.40;;;;;;;22.75;32.56;99579.91;5636333;26;33788;-87
2023/03/24 12:38:17;;;;;;;5.45;3.17;;;;;;;22.40;32.42;99594.66;5554597;32;34564;-88
2023/03/24 12:41:41;;;;;;;5.72;3.30;;;;;;;22.65;32.23;99579.25;5544050;32;34597;-88
2023/03/24 12:45:15;;;;;;;7.75;3.10;;;;;;;22.51;32.33;99585.34;5537443;32;34468;-93
2023/03/24 12:49:01;;;;;;;5.80;3.15;;;;;;;22.64;32.59;99574.00;5550717;32;34239;-86
2023/03/24 12:52:15;;;;;;;7.15;2.95;;;;;;;22.79;32.28;99572.28;5463019;32;33382;-85
2023/03/24 12:55:47;;;;;;;5.97;3.12;;;;;;;22.76;32.37;99567.19;5454151;32;33736;-86
2023/03/24 12:59:09;;;;;;;4.28;3.00;;;;;;;22.89;32.45;99558.53;5473637;32;34508;-86
2023/03/24 13:02:24;;;;;;;6.50;3.08;;;;;;;22.99;32.81;99558.31;5470062;32;34330;-86
2023/03/24 13:05:34;;;;;;;4.97;2.95;;;;;;;23.18;32.16;99559.69;5459531;32;33723;-86
2023/03/24 13:08:39;;;;;;;2.90;2.70;;;;;;;23.05;32.03;99549.47;5457170;32;34246;-89
2023/03/24 13:12:09;;;;;;;5.00;3.00;;;;;;;23.22;32.45;99546.66;5460620;32;33705;-89
2023/03/24 13:15:15;;;;;;;5.60;2.78;;;;;;;23.28;31.90;99538.66;5467851;32;34313;-86
2023/03/24 13:18:38;;;;;;;5.45;3.00;;;;;;;23.17;32.26;99528.25;5457806;32;34258;-88
2023/03/24 13:21:42;;;;;;;4.37;3.20;;;;;;;23.17;32.46;99524.72;5455663;32;34451;-90
2023/03/24 13:24:47;;;;;;;4.68;2.87;;;;;;;22.99;32.51;99529.37;5475240;32;34362;-88
2023/03/24 13:27:55;;;;;;;7.70;3.40;;;;;;;22.83;32.85;99526.81;5545212;32;33924;-89
2023/03/24 13:31:02;;;;;;;7.03;3.08;;;;;;;22.74;32.79;99528.69;5537043;32;33948;-86
2023/03/24 13:34:32;;;;;;;11.95;3.50;;;;;;;22.75;32.86;99533.09;5543419;32;34662;-88
2023/03/24 13:37:56;;;;;;;5.97;2.87;;;;;;;22.33;33.31;99525.12;5532621;32;33934;-87
2023/03/24 13:41:04;;;;;;;7.95;3.10;;;;;;;22.30;33.19;99517.38;5533403;32;35349;-88
2023/03/24 13:44:16;;;;;;;7.85;3.17;;;;;;;22.35;33.25;99508.75;5555622;32;34612;-91
2023/03/24 13:47:19;;;;;;;4.35;2.92;;;;;;;22.30;33.38;99513.81;5537763;32;34569;-89
2023/03/24 13:50:24;;;;;;;3.97;2.60;;;;;;;22.39;33.30;99509.22;5541753;32;34039;-87
2023/03/24 13:53:52;;;;;;;4.40;3.00;;;;;;;22.67;32.96;99509.62;5549075;32;33830;-91
2023/03/24 13:57:07;;;;;;;8.52;2.80;;;;;;;22.58;32.98;99492.63;5534038;32;32947;-86
2023/03/24 14:00:25;;;;;;;8.75;3.00;;;;;;;22.75;33.09;99500.66;5546743;32;33949;-87
2023/03/24 14:03:38;;;;;;;7.45;3.00;;;;;;;22.60;32.78;99501.41;5556450;32;32996;-87
2023/03/24 14:06:48;;;;;;;6.57;3.10;;;;;;;22.64;33.02;99503.75;5564919;32;34233;-87
2023/03/24 14:10:21;;;;;;;3.45;3.00;;;;;;;22.79;32.67;99496.56;5563585;32;34137;-88
2023/03/24 14:13:36;;;;;;;5.00;3.10;;;;;;;22.79;32.63;99490.31;5538269;32;34296;-86
2023/03/24 14:16:42;;;;;;;5.18;2.75;;;;;;;22.90;32.77;99487.22;5535065;32;34113;-87
2023/03/24 14:20:09;;;;;;;5.62;3.00;;;;;;;22.74;32.79;99478.16;5534420;32;33962;-87
2023/03/24 14:23:45;;;;;;;3.47;3.00;;;;;;;22.57;32.89;99474.72;5531941;32;34613;-86
2023/03/24 14:26:48;;;;;;;3.33;3.00;;;;;;;22.37;33.45;99478.84;5546133;32;35187;-88
2023/03/24 14:29:53;;;;;;;3.87;3.20;;;;;;;22.33;33.58;99465.69;5532826;32;33674;-88
2023/03/24 14:32:58;;;;;;;3.40;3.00;;;;;;;22.39;33.47;99466.84;5544856;32;34523;-88
2023/03/24 14:36:05;;;;;;;6.95;3.12;;;;;;;22.15;34.30;99471.34;5548000;32;35138;-87
2023/03/24 14:39:31;;;;;;;12.15;3.28;;;;;;;21.96;34.88;99469.88;5547129;32;34754;-86
2023/03/24 14:42:34;;;;;;;7.03;3.35;;;;;;;21.59;35.35;99468.56;5543891;32;34266;-86
2023/03/24 14:45:58;;;;;;;5.53;3.22;;;;;;;21.67;35.61;99474.78;5546547;32;33775;-87
2023/03/24 14:49:19;;;;;;;7.85;2.85;;;;;;;21.37;35.84;99468.25;5549328;32;33865;-87
2023/03/24 14:52:38;;;;;;;3.20;2.90;;;;;;;21.46;35.79;99463.72;5550296;32;34655;-87
2023/03/24 14:55:42;;;;;;;9.98;3.30;;;;;;;21.48;35.81;99467.87;5539063;32;33989;-87
2023/03/24 14:58:49;;;;;;;6.72;3.05;;;;;;;21.59;35.44;99466.72;5536835;32;34533;-87
2023/03/24 15:02:00;;;;;;;5.22;3.60;;;;;;;21.53;35.52;99462.84;5546166;32;33539;-86
2023/03/24 15:05:13;;;;;;;8.32;3.12;;;;;;;21.63;35.60;99462.66;5530260;32;34210;-87
2023/03/24 15:08:21;;;;;;;3.33;3.03;;;;;;;21.68;35.70;99451.38;5543505;32;34275;-91
2023/03/24 15:11:27;;;;;;;5.78;3.40;;;;;;;21.63;35.40;99454.56;5553670;32;33940;-87
2023/03/24 15:14:33;;;;;;;4.30;3.00;;;;;;;21.67;35.53;99452.34;5559333;32;34191;-87
2023/03/24 15:17:36;;;;;;;4.55;3.35;;;;;;;21.53;35.70;99441.25;5558541;32;34077;-85
2023/03/24 15:20:39;;;;;;;3.92;3.42;;;;;;;21.46;35.90;99444.81;5557736;32;34761;-85
2023/03/24 15:23:46;;;;;;;5.65;3.65;;;;;;;21.50;36.24;99436.22;5558788;32;33755;-88
2023/03/24 15:27:05;;;;;;;9.55;3.60;;;;;;;21.44;36.45;99438.72;5550831;32;34471;-88
2023/03/24 15:30:13;;;;;;;3.53;3.22;;;;;;;21.37;36.83;99435.91;5544510;32;33875;-88
2023/03/24 15:33:17;;;;;;;6.60;3.47;;;;;;;21.36;36.31;99426.94;5531666;32;34599;-89
2023/03/24 15:36:21;;;;;;;4.37;3.08;;;;;;;21.13;36.58;99430.31;5530800;32;33916;-87
2023/03/24 15:39:32;;;;;;;4.97;3.47;;;;;;;21.16;36.54;99428.31;5536699;32;34460;-87
2023/03/24 15:42:40;;;;;;;5.20;3.30;;;;;;;21.09;36.55;99431.69;5537496;32;34141;-89
2023/03/24 15:45:48;;;;;;;9.82;3.40;;;;;;;20.95;36.77;99437.72;5531029;32;34058;-88
2023/03/24 15:49:02;;;;;;;5.30;3.80;;;;;;;20.84;36.99;99436.19;5531311;32;33725;-88
2023/03/24 15:52:57;;;;;;;4.35;3.33;;;;;;;20.71;37.19;99428.56;5535691;32;33913;-88
2023/03/24 15:56:13;;;;;;;3.92;3.53;;;;;;;20.73;37.65;99426.56;5490959;32;33588;-89
2023/03/24 15:59:16;;;;;;;4.22;3.42;;;;;;;20.58;37.49;99432.59;5491355;32;33888;-88
2023/03/24 16:02:44;;;;;;;5.68;3.10;;;;;;;20.47;37.73;99424.84;5484906;32;35465;-88
2023/03/24 16:05:50;;;;;;;6.30;3.58;;;;;;;20.45;37.82;99435.75;5485469;32;35107;-88
2023/03/24 16:08:52;;;;;;;7.18;3.55;;;;;;;20.35;38.14;99428.84;5472072;32;34057;-88
2023/03/24 16:11:55;;;;;;;4.55;3.70;;;;;;;20.29;38.14;99433.00;5470774;32;33922;-88
2023/03/24 16:14:59;;;;;;;9.48;4.22;;;;;;;20.30;38.42;99429.31;5471143;32;33539;-87
